createdAt,value
2022-11-02T00:22:56.226Z,0.00
2022-11-02T00:23:56.614Z,0.00
2022-11-02T00:24:59.033Z,0.00
2022-11-02T00:26:02.219Z,0.00
2022-11-02T00:40:21.639Z,0.00
2022-11-02T00:46:03.027Z,0.00
2022-11-02T00:47:03.031Z,0.00
2022-11-02T00:48:03.392Z,0.00
2022-11-02T00:49:03.043Z,0.00
2022-11-02T00:50:03.042Z,0.00
2022-11-02T00:51:03.053Z,0.00
2022-11-02T00:52:03.060Z,0.00
2022-11-02T00:53:03.058Z,0.00
2022-11-02T00:54:03.069Z,0.00
2022-11-02T00:55:03.068Z,0.00
2022-11-02T00:56:03.101Z,0.00
2022-11-02T00:57:03.081Z,0.00
2022-11-02T00:58:03.614Z,0.00
2022-11-02T00:59:03.090Z,0.00
2022-11-02T01:00:03.104Z,0.00
2022-11-02T01:01:04.168Z,0.00
2022-11-02T01:02:03.191Z,0.00
2022-11-02T01:03:03.119Z,0.00
2022-11-02T01:04:03.116Z,0.00
2022-11-02T01:05:03.130Z,0.00
2022-11-02T01:06:03.134Z,0.00
2022-11-02T01:07:03.141Z,0.00
2022-11-02T01:08:03.570Z,0.00
2022-11-02T01:09:03.141Z,0.00
2022-11-02T01:10:03.155Z,0.00
2022-11-02T01:11:03.152Z,0.00
2022-11-02T01:12:03.179Z,0.00
2022-11-02T01:13:03.172Z,0.00
2022-11-02T01:14:03.176Z,0.00
2022-11-02T01:15:03.173Z,0.00
2022-11-02T01:16:03.183Z,0.00
2022-11-02T01:17:03.191Z,0.00
2022-11-02T01:18:03.623Z,0.00
2022-11-02T01:19:03.194Z,0.00
2022-11-02T01:20:03.202Z,0.00
2022-11-02T01:21:03.212Z,0.00
2022-11-02T01:22:03.220Z,0.00
2022-11-02T01:23:03.223Z,0.00
2022-11-02T01:24:03.223Z,0.00
2022-11-02T01:25:03.240Z,0.00
2022-11-02T01:26:03.232Z,0.00
2022-11-02T01:27:03.247Z,0.00
2022-11-02T01:28:03.452Z,0.00
2022-11-02T01:29:03.255Z,0.00
2022-11-02T01:30:03.253Z,0.00
2022-11-02T01:31:03.266Z,0.00
2022-11-02T01:32:03.270Z,0.00
2022-11-02T01:33:03.275Z,0.00
2022-11-02T01:34:03.279Z,0.00
2022-11-02T01:35:03.314Z,0.00
2022-11-02T01:36:03.284Z,0.00
2022-11-02T01:37:03.288Z,0.00
2022-11-02T01:38:03.726Z,0.00
2022-11-02T01:39:03.307Z,0.00
2022-11-02T01:40:03.311Z,0.00
2022-11-02T01:41:03.317Z,0.00
2022-11-02T01:42:03.312Z,0.00
2022-11-02T01:43:03.327Z,0.00
2022-11-02T01:44:03.354Z,0.00
2022-11-02T01:45:03.328Z,0.00
2022-11-02T01:46:03.345Z,0.00
2022-11-02T01:47:03.338Z,0.00
2022-11-02T01:48:03.798Z,0.00
2022-11-02T01:49:03.355Z,0.00
2022-11-02T01:50:03.364Z,0.00
2022-11-02T01:51:03.373Z,0.00
2022-11-02T01:52:03.372Z,0.00
2022-11-02T01:53:03.375Z,0.00
2022-11-02T01:54:03.381Z,0.00
2022-11-02T01:55:03.382Z,0.00
2022-11-02T01:56:03.393Z,0.00
2022-11-02T01:57:03.396Z,0.00
2022-11-02T01:58:03.830Z,0.00
2022-11-02T01:59:03.401Z,0.00
2022-11-02T02:00:03.429Z,0.00
2022-11-02T02:01:03.417Z,0.00
2022-11-02T02:02:03.558Z,0.00
2022-11-02T02:03:03.428Z,0.00
2022-11-02T02:04:03.427Z,0.00
2022-11-02T02:05:03.429Z,0.00
2022-11-02T02:06:03.437Z,0.00
2022-11-02T02:07:03.449Z,0.00
2022-11-02T02:08:03.711Z,0.00
2022-11-02T02:09:03.460Z,0.00
2022-11-02T02:10:03.457Z,0.00
2022-11-02T02:11:03.465Z,0.00
2022-11-02T02:12:03.474Z,0.00
2022-11-02T02:13:03.473Z,0.00
2022-11-02T02:14:03.478Z,0.00
2022-11-02T02:15:03.492Z,0.00
2022-11-02T02:16:03.508Z,0.00
2022-11-02T02:17:03.504Z,0.00
2022-11-02T02:18:03.988Z,0.00
2022-11-02T02:19:03.512Z,0.00
2022-11-02T02:20:03.528Z,0.00
2022-11-02T02:21:03.514Z,0.00
2022-11-02T02:22:03.521Z,0.00
2022-11-02T02:23:03.534Z,0.00
2022-11-02T02:24:03.529Z,0.00
2022-11-02T02:25:03.543Z,0.00
2022-11-02T02:26:03.547Z,0.00
2022-11-02T02:27:03.542Z,0.00
2022-11-02T02:28:03.805Z,0.00
2022-11-02T02:29:03.560Z,0.00
2022-11-02T02:30:03.567Z,0.00
2022-11-02T02:31:03.563Z,0.00
2022-11-02T02:32:03.591Z,0.00
2022-11-02T02:33:03.581Z,0.00
2022-11-02T02:34:03.586Z,0.00
2022-11-02T02:35:03.583Z,0.00
2022-11-02T02:36:03.591Z,0.00
2022-11-02T02:37:03.602Z,0.00
2022-11-02T02:38:04.040Z,0.00
2022-11-02T02:39:03.639Z,0.00
2022-11-02T02:40:03.611Z,0.00
2022-11-02T02:41:03.613Z,0.00
2022-11-02T02:42:03.627Z,0.00
2022-11-02T02:43:03.636Z,0.00
2022-11-02T02:44:03.631Z,0.00
2022-11-02T02:45:03.635Z,0.00
2022-11-02T02:46:03.648Z,0.00
2022-11-02T02:47:03.655Z,0.00
2022-11-02T02:48:04.241Z,0.00
2022-11-02T02:49:03.663Z,0.00
2022-11-02T02:50:03.661Z,0.00
2022-11-02T02:51:03.675Z,0.00
2022-11-02T02:52:03.671Z,0.00
2022-11-02T02:53:03.684Z,0.00
2022-11-02T02:54:03.680Z,0.00
2022-11-02T02:55:03.694Z,0.00
2022-11-02T02:56:03.698Z,0.00
2022-11-02T02:57:03.696Z,0.00
2022-11-02T02:58:04.043Z,0.00
2022-11-02T02:59:03.708Z,0.00
2022-11-02T03:00:03.718Z,0.00
2022-11-02T03:01:03.714Z,0.00
2022-11-02T03:02:03.866Z,0.00
2022-11-02T03:03:03.725Z,0.00
2022-11-02T03:04:03.759Z,0.00
2022-11-02T03:05:03.734Z,0.00
2022-11-02T03:06:03.749Z,0.00
2022-11-02T03:07:03.745Z,0.00
2022-11-02T03:08:04.139Z,0.00
2022-11-02T03:09:03.763Z,0.00
2022-11-02T03:10:03.769Z,0.00
2022-11-02T03:11:03.774Z,0.00
2022-11-02T03:12:03.776Z,0.00
2022-11-02T03:13:03.776Z,0.00
2022-11-02T03:14:03.782Z,0.00
2022-11-02T03:15:03.796Z,0.00
2022-11-02T03:16:03.798Z,0.00
2022-11-02T03:17:03.806Z,0.00
2022-11-02T03:18:04.158Z,0.00
2022-11-02T03:19:03.808Z,0.00
2022-11-02T03:20:03.839Z,0.00
2022-11-02T03:21:03.818Z,0.00
2022-11-02T03:22:03.823Z,0.00
2022-11-02T03:23:03.836Z,0.00
2022-11-02T03:24:03.840Z,0.00
2022-11-02T03:25:03.846Z,0.00
2022-11-02T03:26:03.863Z,0.00
2022-11-02T03:27:03.859Z,0.00
2022-11-02T03:28:04.169Z,0.00
2022-11-02T03:29:03.866Z,0.00
2022-11-02T03:30:03.871Z,0.00
2022-11-02T03:31:03.871Z,0.00
2022-11-02T03:32:03.882Z,0.00
2022-11-02T03:33:03.886Z,0.00
2022-11-02T03:34:03.892Z,0.00
2022-11-02T03:35:03.902Z,0.00
2022-11-02T03:36:03.930Z,0.00
2022-11-02T03:37:03.977Z,0.00
2022-11-02T03:38:04.165Z,0.00
2022-11-02T03:39:03.918Z,0.00
2022-11-02T03:40:03.928Z,0.00
2022-11-02T03:41:03.921Z,0.00
2022-11-02T03:42:03.935Z,0.00
2022-11-02T03:43:03.935Z,0.00
2022-11-02T03:44:03.939Z,0.00
2022-11-02T03:45:03.942Z,0.00
2022-11-02T03:46:03.957Z,0.00
2022-11-02T03:47:03.953Z,0.00
2022-11-02T03:48:04.363Z,0.00
2022-11-02T03:49:07.601Z,0.00
2022-11-02T03:50:03.977Z,0.00
2022-11-02T03:51:03.975Z,0.00
2022-11-02T03:52:04.010Z,0.00
2022-11-02T03:53:03.994Z,0.00
2022-11-02T03:54:03.990Z,0.00
2022-11-02T03:55:03.997Z,0.00
2022-11-02T03:56:04.009Z,0.00
2022-11-02T03:58:04.317Z,0.00
2022-11-02T03:59:04.025Z,0.00
2022-11-02T04:00:04.023Z,0.00
2022-11-02T04:01:04.035Z,0.00
2022-11-02T04:02:04.172Z,0.00
2022-11-02T04:03:04.057Z,0.00
2022-11-02T04:04:04.052Z,0.00
2022-11-02T04:05:04.061Z,0.00
2022-11-02T04:06:04.062Z,0.00
2022-11-02T04:07:04.060Z,0.00
2022-11-02T04:08:04.469Z,0.00
2022-11-02T04:09:04.071Z,0.00
2022-11-02T04:10:04.094Z,0.00
2022-11-02T04:11:04.080Z,0.00
2022-11-02T04:12:04.094Z,0.00
2022-11-02T04:13:04.089Z,0.00
2022-11-02T04:14:04.108Z,0.00
2022-11-02T04:15:04.101Z,0.00
2022-11-02T04:16:04.108Z,0.00
2022-11-02T04:17:04.116Z,0.00
2022-11-02T04:18:04.379Z,0.00
2022-11-02T04:19:04.128Z,0.00
2022-11-02T04:20:04.134Z,0.00
2022-11-02T04:21:04.139Z,0.00
2022-11-02T04:22:04.146Z,0.00
2022-11-02T04:23:04.150Z,0.00
2022-11-02T04:24:04.178Z,0.00
2022-11-02T04:25:04.152Z,0.00
2022-11-02T04:26:04.157Z,0.00
2022-11-02T04:27:04.171Z,0.00
2022-11-02T04:28:04.502Z,0.00
2022-11-02T04:29:04.174Z,0.00
2022-11-02T04:30:04.179Z,0.00
2022-11-02T04:31:04.195Z,0.00
2022-11-02T04:32:04.188Z,0.00
2022-11-02T04:33:04.202Z,0.00
2022-11-02T04:34:04.205Z,0.00
2022-11-02T04:35:04.211Z,0.00
2022-11-02T04:36:04.208Z,0.00
2022-11-02T04:37:04.218Z,0.00
2022-11-02T04:38:04.585Z,0.00
2022-11-02T04:39:04.231Z,0.00
2022-11-02T04:40:04.255Z,0.00
2022-11-02T04:41:04.243Z,0.00
2022-11-02T04:42:04.245Z,0.00
2022-11-02T04:43:04.252Z,0.00
2022-11-02T04:44:04.260Z,0.00
2022-11-02T04:45:04.260Z,0.00
2022-11-02T04:46:04.274Z,0.00
2022-11-02T04:47:04.266Z,0.00
2022-11-02T04:48:04.571Z,0.00
2022-11-02T04:49:04.273Z,0.00
2022-11-02T04:50:04.288Z,0.00
2022-11-02T04:51:04.291Z,0.00
2022-11-02T04:52:04.299Z,0.00
2022-11-02T04:53:04.301Z,0.00
2022-11-02T04:54:04.302Z,0.00
2022-11-02T04:55:04.305Z,0.00
2022-11-02T04:56:04.330Z,0.00
2022-11-02T04:57:04.323Z,0.00
2022-11-02T04:58:04.727Z,0.00
2022-11-02T04:59:04.325Z,0.00
2022-11-02T05:00:04.339Z,0.00
2022-11-02T05:01:04.344Z,0.00
2022-11-02T05:02:04.533Z,0.00
2022-11-02T05:03:08.119Z,0.00
2022-11-02T05:04:04.359Z,0.00
2022-11-02T05:05:04.364Z,0.00
2022-11-02T05:06:04.372Z,0.00
2022-11-02T05:07:04.367Z,0.00
2022-11-02T05:08:04.702Z,0.00
2022-11-02T05:09:04.385Z,0.00
2022-11-02T05:10:04.382Z,0.00
2022-11-02T05:11:04.387Z,0.00
2022-11-02T05:12:04.418Z,0.00
2022-11-02T05:13:04.397Z,0.00
2022-11-02T05:14:04.409Z,0.00
2022-11-02T05:15:04.422Z,0.00
2022-11-02T05:16:04.420Z,0.00
2022-11-02T05:17:04.417Z,0.00
2022-11-02T05:18:04.776Z,0.00
2022-11-02T05:19:06.917Z,0.00
2022-11-02T05:20:04.448Z,0.00
2022-11-02T05:21:04.437Z,0.00
2022-11-02T05:22:04.445Z,0.00
2022-11-02T05:23:04.866Z,0.00
2022-11-02T05:24:04.454Z,0.00
2022-11-02T05:25:04.459Z,0.00
2022-11-02T05:26:04.465Z,0.00
2022-11-02T05:27:04.468Z,0.00
2022-11-02T05:28:04.501Z,0.00
2022-11-02T05:29:04.487Z,0.00
2022-11-02T05:30:04.490Z,0.00
2022-11-02T05:31:04.498Z,0.00
2022-11-02T05:32:04.496Z,0.00
2022-11-02T05:33:04.884Z,0.00
2022-11-02T05:34:04.503Z,0.00
2022-11-02T05:35:04.518Z,0.00
2022-11-02T05:36:04.523Z,0.00
2022-11-02T05:37:04.525Z,0.00
2022-11-02T05:38:04.533Z,4.00
2022-11-02T05:39:04.541Z,4.00
2022-11-02T05:40:04.536Z,0.00
2022-11-02T05:41:04.539Z,0.00
2022-11-02T05:42:47.095Z,0.00
2022-11-02T05:43:47.109Z,4.00
2022-11-02T05:44:47.105Z,4.00
2022-11-02T05:45:47.109Z,4.00
2022-11-02T05:46:47.108Z,8.00
2022-11-02T05:47:47.118Z,8.00
2022-11-02T05:48:47.117Z,8.00
2022-11-02T05:49:47.131Z,8.00
2022-11-02T05:50:47.136Z,8.00
2022-11-02T05:51:47.139Z,8.00
2022-11-02T05:52:47.138Z,12.00
2022-11-02T05:53:47.144Z,16.00
2022-11-02T05:54:47.149Z,16.00
2022-11-02T05:55:47.156Z,20.00
2022-11-02T05:56:47.158Z,24.00
2022-11-02T05:57:47.166Z,28.00
2022-11-02T05:58:47.238Z,36.00
2022-11-02T05:59:49.385Z,44.00
2022-11-02T06:00:47.186Z,48.00
2022-11-02T06:01:47.321Z,52.00
2022-11-02T06:02:47.195Z,56.00
2022-11-02T06:03:52.979Z,68.00
2022-11-02T06:04:47.239Z,72.00
2022-11-02T06:05:47.257Z,84.00
2022-11-02T06:06:47.216Z,100.00
2022-11-02T06:07:47.223Z,112.00
2022-11-02T06:08:47.223Z,124.00
2022-11-02T06:09:47.232Z,136.00
2022-11-02T06:10:47.237Z,152.00
2022-11-02T06:11:47.241Z,172.00
2022-11-02T06:12:47.243Z,188.00
2022-11-02T06:13:47.253Z,196.00
2022-11-02T06:14:47.254Z,208.00
2022-11-02T06:15:47.274Z,216.00
2022-11-02T06:16:47.261Z,224.00
2022-11-02T06:17:47.274Z,240.00
2022-11-02T06:18:47.280Z,256.00
2022-11-02T06:19:47.284Z,272.00
2022-11-02T06:20:47.288Z,292.00
2022-11-02T06:21:48.535Z,312.00
2022-11-02T06:22:47.292Z,356.00
2022-11-02T06:23:47.385Z,392.00
2022-11-02T06:24:47.301Z,408.00
2022-11-02T06:25:47.307Z,408.00
2022-11-02T06:26:47.320Z,420.00
2022-11-02T06:27:47.318Z,444.00
2022-11-02T06:28:47.324Z,480.00
2022-11-02T06:29:47.328Z,516.00
2022-11-02T06:30:47.342Z,568.00
2022-11-02T06:31:47.358Z,620.00
2022-11-02T06:32:47.352Z,664.00
2022-11-02T06:33:47.357Z,680.00
2022-11-02T06:34:47.358Z,708.00
2022-11-02T06:35:47.366Z,740.00
2022-11-02T06:36:47.365Z,780.00
2022-11-02T06:37:47.375Z,816.00
2022-11-02T06:38:47.376Z,840.00
2022-11-02T06:39:47.380Z,844.00
2022-11-02T06:40:47.394Z,872.00
2022-11-02T06:41:47.398Z,988.00
2022-11-02T06:43:03.208Z,1080.00
2022-11-02T06:43:47.414Z,1140.00
2022-11-02T06:44:47.407Z,1144.00
2022-11-02T06:45:47.417Z,1240.00
2022-11-02T06:46:47.417Z,1388.00
2022-11-02T06:47:47.450Z,1596.00
2022-11-02T06:48:47.436Z,1888.00
2022-11-02T06:49:47.438Z,2408.00
2022-11-02T06:50:47.449Z,3480.00
2022-11-02T06:51:47.443Z,3092.00
2022-11-02T06:52:47.450Z,4512.00
2022-11-02T06:53:47.462Z,5076.00
2022-11-02T06:54:47.458Z,4916.00
2022-11-02T06:56:55.054Z,3748.00
2022-11-02T06:57:55.070Z,2464.00
2022-11-02T06:58:55.072Z,2488.00
2022-11-02T06:59:55.106Z,2492.00
2022-11-02T07:00:55.192Z,2492.00
2022-11-02T07:04:20.975Z,2872.00
2022-11-02T07:05:20.935Z,3124.00
2022-11-02T07:06:20.949Z,3468.00
2022-11-02T07:07:20.947Z,3704.00
2022-11-02T07:09:08.512Z,4008.00
2022-11-02T07:10:08.508Z,3872.00
2022-11-02T07:11:08.520Z,3572.00
2022-11-02T07:12:08.528Z,3552.00
2022-11-02T07:13:08.531Z,3500.00
2022-11-02T07:14:08.530Z,4576.00
2022-11-02T07:15:08.542Z,8428.00
2022-11-02T07:16:08.540Z,8584.00
2022-11-02T07:17:08.553Z,8744.00
2022-11-02T07:18:08.561Z,8892.00
2022-11-02T07:19:11.785Z,9032.00
2022-11-02T07:20:08.582Z,8796.00
2022-11-02T07:21:08.652Z,3428.00
2022-11-02T07:22:08.573Z,4544.00
2022-11-02T07:23:09.051Z,6376.00
2022-11-02T07:24:08.593Z,10028.00
2022-11-02T07:25:51.143Z,10324.00
2022-11-02T07:26:51.140Z,10052.00
2022-11-02T09:12:37.398Z,34816.00
2022-11-02T09:13:37.422Z,35424.00
2022-11-02T09:14:37.399Z,38080.00
2022-11-02T09:15:37.417Z,38592.00
2022-11-02T09:18:10.071Z,39424.00
2022-11-02T09:19:10.108Z,38592.00
2022-11-02T09:22:15.536Z,37376.00
2022-11-02T09:23:15.551Z,37728.00
2022-11-02T09:24:15.562Z,37920.00
2022-11-02T10:07:52.888Z,19552.00
2022-11-02T10:08:52.879Z,18496.00
2022-11-02T10:09:52.889Z,16416.00
2022-11-02T10:10:52.903Z,14524.00
2022-11-02T10:11:52.903Z,14080.00
2022-11-02T10:12:52.923Z,20672.00
2022-11-02T10:13:56.653Z,19488.00
2022-11-02T10:14:52.948Z,24992.00
2022-11-02T10:15:52.948Z,11980.00
2022-11-02T10:16:52.970Z,18528.00
2022-11-02T10:17:52.971Z,13208.00
2022-11-02T10:18:52.990Z,17728.00
2022-11-02T10:32:38.826Z,15152.00
2022-11-02T10:33:38.771Z,13844.00
2022-11-02T10:34:38.782Z,11940.00
2022-11-02T10:35:57.756Z,10156.00
2022-11-02T10:36:38.800Z,10616.00
2022-11-02T10:37:38.814Z,9804.00
2022-11-02T10:38:38.822Z,8888.00
2022-11-02T10:39:38.825Z,9432.00
2022-11-02T10:40:38.841Z,16832.00
2022-11-02T10:41:38.847Z,62112.00
2022-11-02T10:42:38.863Z,22944.00
2022-11-02T10:43:38.868Z,57312.00
2022-11-02T10:44:38.875Z,12448.00
2022-11-02T10:45:38.898Z,41440.00
2022-11-02T10:46:38.905Z,27456.00
2022-11-02T10:47:38.918Z,12904.00
2022-11-02T10:48:38.944Z,13036.00
2022-11-02T10:49:38.929Z,16192.00
2022-11-02T10:50:38.941Z,13380.00
2022-11-02T10:51:38.957Z,17472.00
2022-11-02T10:52:38.965Z,14580.00
2022-11-02T10:53:41.593Z,15392.00
2022-11-02T10:54:38.992Z,16576.00
2022-11-02T10:55:39.001Z,15936.00
2022-11-02T10:56:39.012Z,12372.00
2022-11-02T10:57:39.014Z,9680.00
2022-11-02T10:58:39.033Z,9632.00
2022-11-02T10:59:39.037Z,57888.00
2022-11-02T11:00:39.106Z,15024.00
2022-11-02T11:01:39.081Z,14580.00
2022-11-02T11:02:39.079Z,13580.00
2022-11-02T11:03:39.086Z,57440.00
2022-11-02T11:04:39.113Z,15152.00
2022-11-02T11:05:39.103Z,14276.00
2022-11-02T11:06:39.119Z,16512.00
2022-11-02T11:07:39.121Z,11284.00
2022-11-02T11:08:39.138Z,25920.00
2022-11-02T11:09:42.845Z,8552.00
2022-11-02T11:10:39.159Z,8836.00
2022-11-02T11:11:39.163Z,12532.00
2022-11-02T11:12:39.175Z,12484.00
2022-11-02T11:15:46.435Z,17280.00
2022-11-02T11:16:39.221Z,16320.00
2022-11-02T11:19:40.117Z,22432.00
2022-11-02T11:20:39.279Z,19840.00
2022-11-02T11:21:39.267Z,48608.00
2022-11-02T11:22:39.287Z,29120.00
2022-11-02T11:23:39.296Z,16896.00
2022-11-02T11:24:39.342Z,14380.00
2022-11-02T11:25:39.319Z,23776.00
2022-11-02T11:26:39.325Z,58432.00
2022-11-02T11:27:39.342Z,56416.00
2022-11-02T11:28:39.344Z,56096.00
2022-11-02T11:29:39.359Z,54016.00
2022-11-02T11:30:58.835Z,55776.00
2022-11-02T11:31:39.390Z,55744.00
2022-11-02T11:40:15.251Z,54176.00
2022-11-02T11:41:15.236Z,54400.00
2022-11-02T14:02:26.789Z,4500.00
2022-11-02T14:03:26.674Z,4368.00
2022-11-02T14:04:26.672Z,4352.00
2022-11-02T14:05:26.760Z,4588.00
2022-11-02T14:06:26.681Z,5628.00
2022-11-02T14:07:26.697Z,6200.00
2022-11-02T14:08:26.706Z,6256.00
2022-11-02T14:09:26.706Z,6372.00
2022-11-02T14:10:26.723Z,5764.00
2022-11-02T14:11:26.729Z,5448.00
2022-11-02T14:12:26.747Z,5320.00
2022-11-02T14:13:26.742Z,5836.00
2022-11-02T14:14:26.763Z,6152.00
2022-11-02T14:15:26.821Z,6400.00
2022-11-02T14:17:39.394Z,6200.00
2022-11-02T14:18:39.379Z,14944.00
2022-11-02T14:19:39.387Z,15232.00
2022-11-02T14:20:39.399Z,14944.00
2022-11-02T14:21:39.404Z,14656.00
2022-11-02T14:22:39.423Z,13984.00
2022-11-02T14:23:39.423Z,13696.00
2022-11-02T14:24:39.434Z,13696.00
2022-11-02T14:25:39.442Z,13216.00
2022-11-02T14:27:22.006Z,12800.00
2022-11-02T14:28:22.014Z,12704.00
2022-11-02T14:29:22.023Z,9512.00
2022-11-02T14:30:22.027Z,7532.00
2022-11-02T14:31:22.034Z,7056.00
2022-11-02T14:32:22.055Z,5356.00
2022-11-02T14:33:22.076Z,4480.00
2022-11-02T14:34:22.066Z,4144.00
2022-11-02T14:35:22.076Z,3960.00
2022-11-02T14:36:22.087Z,3796.00
2022-11-02T14:37:22.103Z,3660.00
2022-11-02T14:38:22.117Z,3576.00
2022-11-02T14:40:09.679Z,3404.00
2022-11-02T14:41:09.687Z,3272.00
2022-11-02T14:42:09.688Z,3152.00
2022-11-02T14:43:09.706Z,3048.00
2022-11-02T14:44:09.714Z,2960.00
2022-11-02T14:45:09.729Z,2876.00
2022-11-02T14:46:09.863Z,2792.00
2022-11-02T14:47:09.734Z,2728.00
2022-11-02T14:48:09.754Z,2668.00
2022-11-02T14:49:09.781Z,2624.00
2022-11-02T14:50:09.772Z,2580.00
2022-11-02T14:51:09.772Z,2540.00
2022-11-02T14:52:09.788Z,2492.00
2022-11-02T14:53:09.879Z,2448.00
2022-11-02T14:54:09.806Z,2400.00
2022-11-02T14:55:09.812Z,2344.00
2022-11-02T14:56:09.824Z,2288.00
2022-11-02T14:57:09.829Z,2232.00
2022-11-02T14:58:11.356Z,2180.00
2022-11-02T14:59:09.847Z,2128.00
2022-11-02T15:00:09.857Z,2068.00
2022-11-02T15:01:09.868Z,2024.00
2022-11-02T15:02:09.876Z,1980.00
2022-11-02T15:03:09.882Z,1928.00
2022-11-02T15:04:09.886Z,1848.00
2022-11-02T15:05:09.913Z,1804.00
2022-11-02T15:06:09.899Z,1768.00
2022-11-02T15:07:09.917Z,1728.00
2022-11-02T15:08:09.924Z,1688.00
2022-11-02T15:09:09.926Z,1656.00
2022-11-02T15:10:09.933Z,1620.00
2022-11-02T15:11:09.942Z,1572.00
2022-11-02T15:12:09.950Z,1524.00
2022-11-02T15:13:13.132Z,1476.00
2022-11-02T15:14:09.966Z,1424.00
2022-11-02T15:15:09.984Z,1376.00
2022-11-02T15:16:09.982Z,1328.00
2022-11-02T15:17:10.001Z,1284.00
2022-11-02T15:18:09.998Z,1236.00
2022-11-02T15:19:10.015Z,1192.00
2022-11-02T15:20:10.022Z,1148.00
2022-11-02T15:21:10.055Z,1104.00
2022-11-02T15:22:10.029Z,1060.00
2022-11-02T15:23:14.387Z,1016.00
2022-11-02T15:24:12.328Z,972.00
2022-11-02T15:25:10.055Z,928.00
2022-11-02T15:26:10.062Z,888.00
2022-11-02T15:27:10.080Z,844.00
2022-11-02T15:28:10.085Z,804.00
2022-11-02T15:29:10.086Z,760.00
2022-11-02T15:30:10.096Z,720.00
2022-11-02T15:31:10.102Z,676.00
2022-11-02T15:32:10.118Z,636.00
2022-11-02T15:33:10.376Z,596.00
2022-11-02T15:34:10.141Z,556.00
2022-11-02T15:35:10.133Z,516.00
2022-11-02T15:36:10.141Z,480.00
2022-11-02T15:37:10.173Z,448.00
2022-11-02T15:38:17.561Z,412.00
2022-11-02T15:39:10.172Z,384.00
2022-11-02T15:40:10.182Z,352.00
2022-11-02T15:41:10.178Z,324.00
2022-11-02T15:42:10.189Z,296.00
2022-11-02T15:43:10.202Z,268.00
2022-11-02T15:44:10.203Z,248.00
2022-11-02T15:45:26.736Z,224.00
2022-11-02T15:46:10.326Z,204.00
2022-11-02T15:47:10.225Z,184.00
2022-11-02T15:48:10.243Z,160.00
2022-11-02T15:49:10.242Z,144.00
2022-11-02T15:50:10.257Z,132.00
2022-11-02T15:51:10.254Z,116.00
2022-11-02T15:52:10.273Z,104.00
2022-11-02T15:53:22.992Z,88.00
2022-11-02T15:54:10.287Z,80.00
2022-11-02T15:55:10.293Z,68.00
2022-11-02T15:56:10.294Z,60.00
2022-11-02T15:57:10.301Z,52.00
2022-11-02T15:58:10.314Z,48.00
2022-11-02T15:59:10.323Z,40.00
2022-11-02T16:00:10.323Z,32.00
2022-11-02T16:01:10.454Z,28.00
2022-11-02T16:02:10.394Z,20.00
2022-11-02T16:03:10.353Z,20.00
2022-11-02T16:04:10.459Z,16.00
2022-11-02T16:05:10.357Z,12.00
2022-11-02T16:06:10.375Z,12.00
2022-11-02T16:07:10.379Z,8.00
2022-11-02T16:08:11.385Z,8.00
2022-11-02T16:09:10.415Z,8.00
2022-11-02T16:10:10.396Z,4.00
2022-11-02T16:11:10.408Z,8.00
2022-11-02T16:12:10.410Z,4.00
2022-11-02T16:13:10.422Z,4.00
2022-11-02T16:14:10.428Z,0.00
2022-11-02T16:15:10.431Z,4.00
2022-11-02T16:16:10.447Z,4.00
2022-11-02T16:17:10.451Z,0.00
2022-11-02T16:18:10.450Z,0.00
2022-11-02T16:19:10.460Z,0.00
2022-11-02T16:20:10.466Z,0.00
2022-11-02T16:21:10.473Z,0.00
2022-11-02T16:22:10.482Z,0.00
2022-11-02T16:23:10.495Z,0.00
2022-11-02T16:24:10.495Z,0.00
2022-11-02T16:25:10.543Z,0.00
2022-11-02T16:26:10.513Z,0.00
2022-11-02T16:27:10.524Z,0.00
2022-11-02T16:28:10.522Z,0.00
2022-11-02T16:29:10.536Z,0.00
2022-11-02T16:30:10.536Z,0.00
2022-11-02T16:31:17.991Z,0.00
2022-11-02T16:32:10.553Z,0.00
2022-11-02T16:33:10.563Z,0.00
2022-11-02T16:34:10.564Z,0.00
2022-11-02T16:35:10.575Z,0.00
2022-11-02T16:36:10.584Z,0.00
2022-11-02T16:37:10.700Z,0.00
2022-11-02T16:38:10.597Z,0.00
2022-11-02T16:39:10.604Z,0.00
2022-11-02T16:40:10.615Z,0.00
2022-11-02T16:41:10.637Z,0.00
2022-11-02T16:42:10.625Z,0.00
2022-11-02T16:43:10.630Z,0.00
2022-11-02T16:44:10.638Z,0.00
2022-11-02T16:45:10.639Z,0.00
2022-11-02T16:46:10.654Z,0.00
2022-11-02T16:47:10.650Z,0.00
2022-11-02T16:48:10.663Z,0.00
2022-11-02T16:49:10.671Z,0.00
2022-11-02T16:50:10.678Z,0.00
2022-11-02T16:51:14.605Z,0.00
2022-11-02T16:52:10.692Z,0.00
2022-11-02T16:53:10.689Z,0.00
2022-11-02T16:54:10.700Z,0.00
2022-11-02T16:55:10.710Z,0.00
2022-11-02T16:56:10.714Z,0.00
2022-11-02T16:57:12.028Z,0.00
2022-11-02T16:58:10.722Z,0.00
2022-11-02T16:59:10.743Z,0.00
2022-11-02T17:00:10.739Z,0.00
2022-11-02T17:01:10.891Z,0.00
2022-11-02T17:02:10.903Z,0.00
2022-11-02T17:03:10.767Z,0.00
2022-11-02T17:04:10.764Z,0.00
2022-11-02T17:05:10.800Z,0.00
2022-11-02T17:06:10.784Z,0.00
2022-11-02T17:07:10.783Z,0.00
2022-11-02T17:08:10.797Z,0.00
2022-11-02T17:09:10.805Z,0.00
2022-11-02T17:10:10.818Z,0.00
2022-11-02T17:11:10.812Z,0.00
2022-11-02T17:12:10.823Z,0.00
2022-11-02T17:13:10.854Z,0.00
2022-11-02T17:14:10.838Z,0.00
2022-11-02T17:15:10.846Z,0.00
2022-11-02T17:16:10.844Z,0.00
2022-11-02T17:17:10.849Z,0.00
2022-11-02T17:18:10.857Z,0.00
2022-11-02T17:19:15.481Z,0.00
2022-11-02T17:20:10.876Z,0.00
2022-11-02T17:21:10.877Z,0.00
2022-11-02T17:22:10.891Z,0.00
2022-11-02T17:23:10.904Z,0.00
2022-11-02T17:24:10.896Z,0.00
2022-11-02T17:25:10.911Z,0.00
2022-11-02T17:26:10.916Z,0.00
2022-11-02T17:27:10.918Z,0.00
2022-11-02T17:28:10.925Z,0.00
2022-11-02T17:29:10.950Z,0.00
2022-11-02T17:30:10.944Z,0.00
2022-11-02T17:31:10.941Z,0.00
2022-11-02T17:32:10.950Z,0.00
2022-11-02T17:33:10.953Z,0.00
2022-11-02T17:34:10.971Z,0.00
2022-11-02T17:35:10.968Z,0.00
2022-11-02T17:36:10.983Z,0.00
2022-11-02T17:37:10.987Z,0.00
2022-11-02T17:38:10.994Z,0.00
2022-11-02T17:39:10.996Z,0.00
2022-11-02T17:40:11.007Z,0.00
2022-11-02T17:41:11.012Z,0.00
2022-11-02T17:42:11.021Z,0.00
2022-11-02T17:43:11.025Z,0.00
2022-11-02T17:44:11.034Z,0.00
2022-11-02T17:46:11.047Z,0.00
2022-11-02T17:47:11.044Z,0.00
2022-11-02T17:48:11.062Z,0.00
2022-11-02T17:49:11.059Z,0.00
2022-11-02T17:50:11.071Z,0.00
2022-11-02T17:51:11.073Z,0.00
2022-11-02T17:52:11.085Z,0.00
2022-11-02T17:53:11.092Z,0.00
2022-11-02T17:54:11.090Z,0.00
2022-11-02T17:55:11.104Z,0.00
2022-11-02T17:56:11.104Z,0.00
2022-11-02T17:57:11.109Z,0.00
2022-11-02T17:58:11.117Z,0.00
2022-11-02T17:59:11.121Z,0.00
2022-11-02T18:00:11.136Z,0.00
2022-11-02T18:01:11.322Z,0.00
2022-11-02T18:02:11.305Z,0.00
2022-11-02T18:03:11.191Z,0.00
2022-11-02T18:04:11.160Z,0.00
2022-11-02T18:05:11.158Z,0.00
2022-11-02T18:06:11.173Z,0.00
2022-11-02T18:07:11.181Z,0.00
2022-11-02T18:08:11.186Z,0.00
2022-11-02T18:09:11.185Z,0.00
2022-11-02T18:10:11.202Z,0.00
2022-11-02T18:11:11.206Z,0.00
2022-11-02T18:12:11.210Z,0.00
2022-11-02T18:13:11.208Z,0.00
2022-11-02T18:14:11.214Z,0.00
2022-11-02T18:15:11.223Z,0.00
2022-11-02T18:16:11.228Z,0.00
2022-11-02T18:17:11.253Z,0.00
2022-11-02T18:18:11.240Z,0.00
2022-11-02T18:19:11.257Z,0.00
2022-11-02T18:20:11.254Z,0.00
2022-11-02T18:21:11.259Z,0.00
2022-11-02T18:22:11.275Z,0.00
2022-11-02T18:23:11.277Z,0.00
2022-11-02T18:24:11.281Z,0.00
2022-11-02T18:25:11.380Z,0.00
2022-11-02T18:26:11.291Z,0.00
2022-11-02T18:27:11.302Z,0.00
2022-11-02T18:28:11.302Z,0.00
2022-11-02T18:29:11.307Z,0.00
2022-11-02T18:30:11.324Z,0.00
2022-11-02T18:31:11.320Z,0.00
2022-11-02T18:32:11.326Z,0.00
2022-11-02T18:33:13.704Z,0.00
2022-11-02T18:34:11.337Z,0.00
2022-11-02T18:35:11.346Z,0.00
2022-11-02T18:36:11.350Z,0.00
2022-11-02T18:37:11.364Z,0.00
2022-11-02T18:38:11.379Z,0.00
2022-11-02T18:39:11.376Z,0.00
2022-11-02T18:40:11.384Z,0.00
2022-11-02T18:41:11.379Z,0.00
2022-11-02T18:42:11.389Z,0.00
2022-11-02T18:43:11.399Z,0.00
2022-11-02T18:44:15.254Z,0.00
2022-11-02T18:45:11.405Z,0.00
2022-11-02T18:46:11.420Z,0.00
2022-11-02T18:47:11.424Z,0.00
2022-11-02T18:48:11.428Z,0.00
2022-11-02T18:49:11.457Z,0.00
2022-11-02T18:50:11.433Z,0.00
2022-11-02T18:51:11.440Z,0.00
2022-11-02T18:52:11.451Z,0.00
2022-11-02T18:53:11.459Z,0.00
2022-11-02T18:54:11.467Z,0.00
2022-11-02T18:55:11.464Z,0.00
2022-11-02T18:56:11.479Z,0.00
2022-11-02T18:57:11.489Z,0.00